Randolph, VT

11:19 AM EST on December 10, 2016 (GMT -0500)
T.A.R.D.Haus | | Change Station

Elev 700 ft 43.94 °N, 72.66 °W | Updated 8 seconds ago

Overcast
Overcast
20.1 °F
Feels Like 13 °F
N
5.1
Wind Variable Wind from NNW
Gusts 7.4 mph

Today
High -- | Low -- °F
--% Chance of Precip.
Yesterday
High -- | Low -- °F
Precip. -- in
Pressure 30.36 in
Visibility 10.0 miles
Clouds Mostly Cloudy 3300 ft
Overcast 3900 ft
Windchill 13 °F
Dew Point 4 °F
Humidity 48%
Rainfall 0.00 in
Snow Depth Not available.
7:14 AM 4:12 PM
Waxing Gibbous, 84% visible
METAR KMPV 101551Z AUTO 32007KT 10SM BKN033 OVC039 M09/M14 A3029 RMK AO2 SLP280 T10891144 TSNO
Pressure 30.36 in
Visibility 10.0 miles
Clouds Mostly Cloudy 3300 ft
Overcast 3900 ft
Windchill 13 °F
Dew Point 4 °F
Humidity 48%
Rainfall 0.00 in
Snow Depth Not available.
7:14 AM 4:12 PM
Waxing Gibbous, 84% visible
METAR KMPV 101551Z AUTO 32007KT 10SM BKN033 OVC039 M09/M14 A3029 RMK AO2 SLP280 T10891144 TSNO

10-Day Weather Forecast

Almanac

Astronomy

Dec. 10, 2016 Rise Set
Actual Time
Civil Twilight
Nautical Twilight
Astronomical Twilight
Moon
Length of Visible Light
Length of Day
Tomorrow will be .
, % of the Moon is Illuminated

Today's Extremes

State Highs State Lows

Community

WunderPhotos

Upload Photos

1,956,569 photos uploaded!

WunderBlog® & News

Nearby

Air Quality

  Air Quality AQ Index Pollutant
Not available.

Snow Depth

Station Depth Elevation

Earthquake Activity

City Distance Mag. Time & Date
Minimum magnitude displayed is 2.5.

Coastal Water Temperatures

Place Temperature

Stations

Nearby Weather Stations

Station Location Temp. Windchill Dew Point Humidity Wind Precip. Elev Updated Type
                   

Watches & Warnings

There are currently no watches in effect.